AirNav   Pilot Hours Calculator
 
 830 users online  

KAGR MacDill Air Force Base Auxiliary Field
Avon Park, Florida, USA

GOING TO AVON PARK?


FAA INFORMATION EFFECTIVE 08 OCTOBER 2020

Location

FAA Identifier: AGR
Lat/Long: 27-38-52.2600N 081-20-29.6300W
27-38.871000N 081-20.493833W
27.6478500,-81.3415639
(estimated)
Elevation: 68 ft. / 20.7 m (surveyed)
Variation: 03W (1985)
From city: 8 miles NE of AVON PARK, FL
Time zone: UTC -4 (UTC -5 during Standard Time)
Zip code: 33825

Airport Operations

Airport use: Private use. Permission required prior to landing
Activation date: 02/1944
Control tower: no
ARTCC: MIAMI CENTER
FSS: SAINT PETERSBURG FLIGHT SERVICE STATION
FSS ST PETERSBURG PIE VIA AVON PARK AFR NOTAM PIE.
NOTAMs facility: MCF (NOTAM-D service available)
Attendance: CONTINUOUS
OFFICIAL BUSINESS ONLY. PRIOR APPROVAL REQUIRED FM DEPUTY CDR FOR OPERN, 1ST TFW, MACDILL AFB, FL OR FROM CDR, 1ST CSG, AVON PARK AF RNG, FL.
Wind indicator: yes
Segmented circle: no
Lights: ACTVT RWY LGTS CALL 813-453-6641.
Beacon: white-green (lighted land airport)
ACTVT ROTG BCN CALL 813-453-6641.

Airport Communications

WX AWOS-3 at AVO (11 nm W): 118.725 (863-453-4223)
WX AWOS-3 at SEF (11 nm S): 119.475 (863-655-6424)

Airport Services

Airframe service: NONE
Powerplant service: NONE
Bottled oxygen: NONE
Bulk oxygen: NONE

Runway Information

Runway 5/23

Dimensions: 8000 x 150 ft. / 2438 x 46 m
Surface: asphalt
Runway edge lights: medium intensity
RUNWAY 5  RUNWAY 23
Latitude: 27-38.448667N27-39.293350N
Longitude: 081-21.063667W081-19.924168W
Elevation: 65.1 ft.67.3 ft.
Traffic pattern: leftleft
Runway heading: 053 magnetic, 050 true233 magnetic, 230 true
Markings: nonprecision, in good conditionnonprecision, in good condition
Visual slope indicator: 4-light PAPI on left (3.00 degrees glide path)4-light PAPI on left (3.00 degrees glide path)
Runway end identifier lights: nono
Touchdown point: yes, no lightsyes, no lights

Airport Ownership and Management from official FAA records

Ownership: U.S. Air Force
Owner: U.S. AIR FORCE
1ST COMBAT SPT GP(TAC)
AVON PARK AF RNG, FL 33825
Manager: CHIEF AIRFIELD MANAGEMENT
1ST COMBAT SPT GP(TAC)
AVON PARK AF RNG, FL 33825
Phone 813-453-6641

Additional Remarks

E60-23 BAK-12B.
RSTD: CLSD TO ACFT OVER 150,000 LB.
DOES NOT APPEAR ON AIRNAV / NOT IN CHART SUPPLEMENT

Instrument Procedures

There are no published instrument procedures at KAGR.

Some nearby airports with instrument procedures:

KAVO - Avon Park Executive Airport (11 nm W)
KSEF - Sebring Regional Airport (11 nm S)
X07 - Lake Wales Municipal Airport (21 nm NW)
KBOW - Bartow Executive Airport (29 nm NW)
KCHN - Wauchula Municipal Airport (30 nm W)
 
Loc | Ops | Rwys | IFR | FBO | Links
Com | Nav | Svcs | Stats | Notes


 
Area around KAGR (MacDill Air Force Base Auxiliary Field)
 
Road maps at: MapQuest Bing Google
 
Aerial photo
WARNING: Photo may not be current or correct
Aerial photo of KAGR (MacDill Air Force Base Auxiliary Field)
Do you have a better or more recent aerial photo of MacDill Air Force Base Auxiliary Field that you would like to share? If so, please send us your photo.

 
Sectional chart

 
Airport distance calculator
Flying to MacDill Air Force Base Auxiliary Field? Find the distance to fly.

From to KAGR

Sunrise and sunset
Times for 23-Oct-2020
 Local
(UTC-4)
 Zulu
(UTC)
Morning civil twilight07:0811:08
Sunrise07:3211:32
Sunset18:4722:47
Evening civil twilight19:1123:11

Current date and time
Zulu (UTC)  24-Oct-2020 03:47:09
Local (UTC-4)  23-Oct-2020 23:47:09
 
METAR
KAGR 240258Z AUTO 08004KT 10SM CLR M A2998 RMK AO2 SLPNO 50002 $
KSEF 
11nm S 
240335Z AUTO 08004KT 10SM CLR 23/21 A2999 RMK AO2 T02290212
TAF
KISM 
38nm N 
231721Z 2318/2418 06008KT P6SM -SHRA SCT030 BKN050 FM240000 07004KT P6SM FEW020 SCT100 FM241500 09007KT P6SM SCT025 SCT250
KLAL 
41nm NW 
231722Z 2318/2418 09010KT P6SM VCTS BKN035CB BKN100 FM240100 09007KT P6SM SCT040 BKN150 FM240600 08003KT P6SM FEW010 BKN150 FM241500 09006KT P6SM SCT025 BKN100
KMLB 
46nm NE 
231721Z 2318/2418 10010KT P6SM SHRA SCT008 SCT025 BKN050 TEMPO 2318/2319 2SM +RA BKN008 FM240000 09004KT P6SM FEW020 SCT100 FM241500 08008KT P6SM SCT025 SCT250
KMCO 
46nm N 
232157Z 2322/2424 08009KT P6SM VCSH SCT030 BKN080 TEMPO 2322/2323 06012G20KT 4SM RA BKN030 FM240000 07006KT P6SM FEW020 SCT100 FM241500 08007KT P6SM SCT025 SCT250 FM241800 09008KT P6SM VCSH SCT030 BKN100
NOTAMs
Click for the latest NOTAMs
NOTAMs are issued by the DoD/FAA and will open in a separate window not controlled by AirNav.

 

 
 

Would you like to see your business listed on this page?

 If your business provides an interesting product or service to pilots, flight crews, aircraft, or users of the MacDill Air Force Base Auxiliary Field, you should consider listing it here.  To start the listing process, click on the button below
 
Add a business
 

Other Pages about MacDill Air Force Base Auxiliary Field

Update a link
 
Copyright © AirNav, LLC. All rights reserved. Privacy Policy  Contact